Lecanto, Florida
Current Conditions -  °F | °C
As of 2:55 PM on Saturday 22 Nov 2014 (Local Time) from KCGC Reporting Station
Overcast Overcast  
Wind Chill: 70°   Ceiling: 1400
Heat Index: 70°   Visibility: 10mi
Dew Point: 63°   Wind: 15mph
Humidity: 78%   Direction: 90°E
Pressure: 30.14"   Gusts: 23mph
Location:  28.86°N, 82.49°W
Report Text: KCGC 221955Z AUTO 09013G20KT 10SM OVC014 21/17 A3014 RMK AO2
Loading
Personal Weather Stations






























Interactive Weather Map New forecast layout! Learn more

10-Day Weather Forecast

Advertisements
Track Severe Weather on mobile